Time;durP1;ratioP1;P1;durP2;ratioP2;P2;SDS_P1;SDS_P2;PMS_P1;PMS_P2;Temp;Humidity;BMP_temperature;BMP_pressure;BME280_temperature;BME280_humidity;BME280_pressure;Samples;Min_cycle;Max_cycle;Signal;HPM_P1;HPM_P2
2022/08/06 00:00:35;;;;;;;3.38;1.40;;;14.70;99.90;;;;;;5030870;28;20477;-58
2022/08/06 00:03:02;;;;;;;3.83;1.20;;;14.70;99.90;;;;;;5031979;28;20049;-58
2022/08/06 00:05:27;;;;;;;2.70;1.17;;;14.70;99.90;;;;;;5032374;28;20083;-58
2022/08/06 00:07:55;;;;;;;2.30;1.17;;;14.60;99.90;;;;;;5031781;28;20049;-58
2022/08/06 00:10:20;;;;;;;4.40;1.40;;;14.60;99.90;;;;;;5013879;28;20045;-58
2022/08/06 00:12:46;;;;;;;4.25;1.42;;;14.60;99.90;;;;;;5011181;28;20041;-58
2022/08/06 00:15:12;;;;;;;3.75;1.30;;;14.60;99.90;;;;;;5031734;28;20095;-58
2022/08/06 00:17:38;;;;;;;4.65;1.40;;;14.50;99.90;;;;;;5017515;28;20089;-58
2022/08/06 00:20:05;;;;;;;3.05;1.67;;;14.50;99.90;;;;;;5017563;28;20037;-58
2022/08/06 00:22:31;;;;;;;8.60;4.07;;;14.50;99.90;;;;;;5030752;28;20116;-59
2022/08/06 00:24:57;;;;;;;8.55;4.70;;;14.50;99.90;;;;;;5045478;28;20175;-59
2022/08/06 00:27:23;;;;;;;8.70;6.00;;;14.60;99.90;;;;;;5051697;28;20056;-59
2022/08/06 00:29:49;;;;;;;9.95;7.05;;;14.50;99.90;;;;;;5051237;28;20466;-58
2022/08/06 00:32:15;;;;;;;14.75;10.15;;;14.60;99.90;;;;;;5036439;28;20059;-58
2022/08/06 00:34:41;;;;;;;14.48;11.13;;;14.50;99.90;;;;;;5051845;28;20079;-58
2022/08/06 00:37:07;;;;;;;14.50;10.95;;;14.50;99.90;;;;;;5049336;28;20076;-58
2022/08/06 00:39:32;;;;;;;16.58;11.15;;;14.50;99.90;;;;;;5031702;28;20367;-58
2022/08/06 00:41:58;;;;;;;16.35;10.98;;;14.50;99.90;;;;;;5014345;28;20195;-58
2022/08/06 00:44:25;;;;;;;15.02;10.13;;;14.50;99.90;;;;;;5031760;28;20033;-58
2022/08/06 00:46:51;;;;;;;14.68;10.45;;;14.50;99.90;;;;;;5031309;28;20733;-58
2022/08/06 00:49:16;;;;;;;14.90;11.18;;;14.50;99.90;;;;;;5031136;28;20077;-58
2022/08/06 00:51:42;;;;;;;12.70;10.55;;;14.50;99.90;;;;;;5030689;28;20034;-58
2022/08/06 00:54:08;;;;;;;13.18;10.93;;;14.50;99.90;;;;;;5047657;28;20045;-59
2022/08/06 00:56:33;;;;;;;14.23;8.73;;;14.50;99.90;;;;;;5051482;28;20044;-58
2022/08/06 00:58:59;;;;;;;10.85;8.95;;;14.40;99.90;;;;;;5037028;28;20443;-58
2022/08/06 01:01:25;;;;;;;10.65;8.20;;;14.40;99.90;;;;;;5029884;28;20045;-58
2022/08/06 01:03:50;;;;;;;11.82;7.10;;;14.40;99.90;;;;;;5033718;28;20053;-58
2022/08/06 01:06:16;;;;;;;10.77;7.50;;;14.40;99.90;;;;;;5053680;28;20029;-58
2022/08/06 01:08:42;;;;;;;10.32;6.85;;;14.40;99.90;;;;;;5055526;28;20442;-60
2022/08/06 01:11:08;;;;;;;10.90;6.53;;;14.40;99.90;;;;;;5037748;28;20449;-58
2022/08/06 01:13:34;;;;;;;9.90;6.32;;;14.40;99.90;;;;;;5035214;28;20048;-58
2022/08/06 01:16:17;;;;;;;7.75;6.10;;;14.30;99.90;;;;;;5021785;28;20132;-59
2022/08/06 01:19:09;;;;;;;8.77;5.65;;;14.40;99.90;;;;;;5055295;28;20037;-58
2022/08/06 01:22:00;;;;;;;7.00;4.85;;;14.30;99.90;;;;;;5042541;28;20057;-58
2022/08/06 01:24:43;;;;;;;7.43;5.03;;;14.30;99.90;;;;;;5045059;28;20089;-59
2022/08/06 01:27:34;;;;;;;7.82;4.70;;;14.30;99.90;;;;;;5053096;28;20037;-58
2022/08/06 01:30:07;;;;;;;6.15;4.53;;;14.30;99.90;;;;;;5037197;28;20111;-59
2022/08/06 01:32:45;;;;;;;6.55;4.35;;;14.30;99.90;;;;;;5037850;28;20082;-58
2022/08/06 01:35:18;;;;;;;7.28;4.22;;;14.30;99.90;;;;;;5054976;28;20088;-59
2022/08/06 01:37:56;;;;;;;5.25;3.60;;;14.30;99.90;;;;;;5054751;28;20028;-58
2022/08/06 01:40:26;;;;;;;5.22;3.80;;;14.30;99.90;;;;;;5040194;28;20041;-59
2022/08/06 01:42:56;;;;;;;6.35;3.78;;;14.30;99.90;;;;;;5041543;28;20439;-59
2022/08/06 01:45:25;;;;;;;7.65;3.88;;;14.20;99.90;;;;;;5054417;28;20033;-59
2022/08/06 01:47:54;;;;;;;7.28;4.18;;;14.20;99.90;;;;;;5054567;28;20075;-59
2022/08/06 01:50:26;;;;;;;5.90;4.28;;;14.30;99.90;;;;;;5041040;28;20195;-58
2022/08/06 01:52:53;;;;;;;7.32;4.63;;;14.20;99.90;;;;;;5038648;28;20123;-58
2022/08/06 01:55:19;;;;;;;5.82;4.35;;;14.20;99.90;;;;;;5054398;28;20076;-58
2022/08/06 01:57:51;;;;;;;5.97;4.22;;;14.20;99.90;;;;;;5040213;28;20317;-58
2022/08/06 02:00:18;;;;;;;7.53;4.75;;;14.20;99.90;;;;;;5042996;28;20048;-59
2022/08/06 02:02:45;;;;;;;7.05;4.72;;;14.10;99.90;;;;;;5033529;28;20037;-58
2022/08/06 02:05:14;;;;;;;7.30;4.85;;;14.00;99.90;;;;;;5034511;28;20033;-59
2022/08/06 02:07:43;;;;;;;7.50;5.15;;;13.90;99.90;;;;;;5034454;28;20041;-58
2022/08/06 02:10:11;;;;;;;8.57;5.63;;;13.90;99.90;;;;;;5033877;28;20567;-58
2022/08/06 02:12:39;;;;;;;8.43;5.50;;;13.80;99.90;;;;;;5031837;28;20494;-58
2022/08/06 02:15:10;;;;;;;6.65;5.10;;;13.80;99.90;;;;;;5033853;28;20038;-58
2022/08/06 02:17:43;;;;;;;9.57;5.45;;;13.70;99.90;;;;;;5033515;28;20132;-58
2022/08/06 02:20:11;;;;;;;8.80;5.78;;;13.80;99.90;;;;;;5026803;28;20044;-58
2022/08/06 02:22:38;;;;;;;7.93;5.55;;;13.80;99.90;;;;;;5035585;28;20441;-58
2022/08/06 02:25:11;;;;;;;10.45;5.68;;;13.80;99.90;;;;;;5047521;28;20041;-58
2022/08/06 02:27:40;;;;;;;8.23;6.15;;;13.70;99.90;;;;;;5033968;28;20052;-58
2022/08/06 02:30:06;;;;;;;7.88;5.40;;;13.70;99.90;;;;;;5033399;28;20121;-58
2022/08/06 02:32:32;;;;;;;9.40;6.05;;;13.70;99.90;;;;;;5032844;28;20044;-59
2022/08/06 02:34:58;;;;;;;10.40;5.80;;;13.60;99.90;;;;;;5033324;28;20441;-58
2022/08/06 02:37:33;;;;;;;9.80;6.03;;;13.60;99.90;;;;;;5047381;28;20103;-57
2022/08/06 02:40:14;;;;;;;7.80;5.80;;;13.50;99.90;;;;;;5033298;28;20056;-58
2022/08/06 02:42:46;;;;;;;8.13;4.90;;;13.50;99.90;;;;;;5012510;28;20049;-58
2022/08/06 02:45:23;;;;;;;7.90;5.90;;;13.50;99.90;;;;;;5016249;28;20037;-58
2022/08/06 02:48:08;;;;;;;9.15;5.90;;;13.50;99.90;;;;;;5026272;28;20040;-57
2022/08/06 02:50:37;;;;;;;9.25;5.85;;;13.50;99.90;;;;;;5037605;28;20061;-58
2022/08/06 02:53:23;;;;;;;6.65;5.63;;;13.40;99.90;;;;;;5021178;28;20037;-58
2022/08/06 02:55:59;;;;;;;6.95;5.35;;;13.40;99.90;;;;;;5035385;28;20048;-58
2022/08/06 02:58:55;;;;;;;9.02;6.28;;;13.40;99.90;;;;;;5043371;28;20038;-58
2022/08/06 03:01:25;;;;;;;7.80;5.57;;;13.40;99.90;;;;;;5023268;28;20049;-59
2022/08/06 03:03:53;;;;;;;7.40;5.72;;;13.40;99.90;;;;;;5037605;28;20469;-59
2022/08/06 03:06:21;;;;;;;7.88;5.43;;;13.40;99.90;;;;;;5038757;28;20088;-58
2022/08/06 03:08:52;;;;;;;8.60;5.80;;;13.40;99.90;;;;;;5041772;28;20060;-58
2022/08/06 03:11:19;;;;;;;7.40;5.97;;;13.40;99.90;;;;;;5043540;28;20116;-58
2022/08/06 03:13:45;;;;;;;7.60;6.15;;;13.50;99.90;;;;;;5033352;28;20037;-58
2022/08/06 03:16:13;;;;;;;8.65;6.68;;;13.40;99.90;;;;;;5032671;28;20057;-58
2022/08/06 03:18:41;;;;;;;8.75;6.38;;;13.40;99.90;;;;;;5033040;28;20033;-58
2022/08/06 03:21:08;;;;;;;7.95;5.80;;;13.40;99.90;;;;;;5031425;28;20051;-59
2022/08/06 03:23:34;;;;;;;5.88;5.00;;;13.40;99.90;;;;;;5032572;28;20037;-58
2022/08/06 03:26:01;;;;;;;9.38;5.45;;;13.30;99.90;;;;;;5031819;28;20470;-60
2022/08/06 03:28:27;;;;;;;8.15;4.97;;;13.30;99.90;;;;;;5028853;28;20063;-58
2022/08/06 03:30:54;;;;;;;8.38;5.30;;;13.30;99.90;;;;;;5031391;28;20042;-59
2022/08/06 03:33:20;;;;;;;6.45;4.13;;;13.40;99.90;;;;;;5032419;28;20037;-59
2022/08/06 03:35:47;;;;;;;6.18;4.25;;;13.40;99.90;;;;;;5037497;28;20029;-57
2022/08/06 03:38:14;;;;;;;6.80;4.05;;;13.30;99.90;;;;;;5051897;28;20366;-58
2022/08/06 03:40:43;;;;;;;5.90;3.63;;;13.20;99.90;;;;;;5048377;28;20084;-58
2022/08/06 03:43:09;;;;;;;5.47;3.15;;;13.10;99.90;;;;;;5022504;28;20049;-58
2022/08/06 03:45:42;;;;;;;4.75;3.05;;;13.20;99.90;;;;;;5031947;28;20052;-59
2022/08/06 03:48:13;;;;;;;4.43;2.75;;;13.30;99.90;;;;;;5041536;28;20055;-58
2022/08/06 03:50:43;;;;;;;4.53;2.60;;;13.10;99.90;;;;;;5035726;28;20053;-59
2022/08/06 03:53:17;;;;;;;5.05;2.63;;;13.10;99.90;;;;;;5020938;28;20042;-58
2022/08/06 03:55:43;;;;;;;;;;;13.10;99.90;;;;;;5030755;28;20072;-58
2022/08/06 03:58:12;;;;;;;4.45;2.60;;;13.10;99.90;;;;;;5044341;28;20338;-58
2022/08/06 04:01:04;;;;;;;3.20;2.28;;;13.10;99.90;;;;;;5027834;28;20037;-60
2022/08/06 04:03:34;;;;;;;3.58;2.60;;;13.20;99.90;;;;;;5021115;28;20056;-58
2022/08/06 04:06:00;;;;;;;2.50;2.25;;;13.10;99.90;;;;;;5048078;28;20051;-58
2022/08/06 04:08:26;;;;;;;5.47;2.60;;;13.20;99.90;;;;;;5043813;28;20039;-58
2022/08/06 04:10:52;;;;;;;3.08;2.40;;;13.10;99.90;;;;;;5030456;28;20183;-58
2022/08/06 04:13:25;;;;;;;3.25;2.30;;;13.00;99.90;;;;;;5045608;28;20041;-59
2022/08/06 04:15:52;;;;;;;5.97;2.20;;;13.00;99.90;;;;;;5031516;28;20069;-59
2022/08/06 04:18:21;;;;;;;5.40;2.47;;;13.00;99.90;;;;;;5031794;28;20057;-59
2022/08/06 04:20:50;;;;;;;2.50;2.10;;;12.90;99.90;;;;;;5030482;28;20534;-59
2022/08/06 04:23:16;;;;;;;3.40;2.10;;;13.10;99.90;;;;;;5050051;28;20037;-59
2022/08/06 04:25:49;;;;;;;4.55;2.10;;;13.10;99.90;;;;;;5027883;28;20049;-59
2022/08/06 04:28:16;;;;;;;4.20;2.10;;;13.10;99.90;;;;;;5031903;28;20052;-59
2022/08/06 04:30:44;;;;;;;3.22;2.15;;;13.20;99.90;;;;;;5031052;28;20502;-58
2022/08/06 04:33:12;;;;;;;4.38;1.83;;;13.30;99.90;;;;;;5026166;28;20059;-59
2022/08/06 04:35:40;;;;;;;3.97;1.92;;;13.40;99.90;;;;;;5033629;28;20103;-59
2022/08/06 04:38:06;;;;;;;4.30;1.95;;;13.40;99.90;;;;;;5026876;28;20064;-59
2022/08/06 04:40:32;;;;;;;4.70;1.98;;;13.50;99.90;;;;;;5038712;28;20243;-58
2022/08/06 04:42:58;;;;;;;4.65;2.33;;;13.50;99.90;;;;;;5043457;28;20407;-58
2022/08/06 04:45:26;;;;;;;3.38;2.05;;;13.60;99.90;;;;;;5055121;28;20033;-58
2022/08/06 04:47:53;;;;;;;5.07;2.42;;;13.70;99.90;;;;;;5035592;28;20038;-61
2022/08/06 04:50:18;;;;;;;4.95;2.00;;;13.90;99.90;;;;;;5035199;28;20037;-59
2022/08/06 04:52:44;;;;;;;5.57;2.55;;;14.10;99.90;;;;;;5034605;28;20104;-59
2022/08/06 04:55:10;;;;;;;3.30;2.00;;;14.10;99.90;;;;;;5035579;28;20044;-58
2022/08/06 04:57:36;;;;;;;3.75;2.10;;;14.20;99.90;;;;;;5035232;28;20522;-59
2022/08/06 05:00:03;;;;;;;4.68;2.15;;;14.30;99.90;;;;;;5043807;28;20041;-60
2022/08/06 05:02:29;;;;;;;2.92;2.00;;;14.30;99.90;;;;;;5027411;28;20129;-59
2022/08/06 05:04:57;;;;;;;3.10;2.05;;;14.40;99.90;;;;;;5035145;28;20120;-59
2022/08/06 05:07:28;;;;;;;7.13;2.03;;;14.40;99.90;;;;;;5035199;28;20042;-58
2022/08/06 05:09:56;;;;;;;2.20;2.00;;;14.40;99.90;;;;;;5035030;28;20073;-59
2022/08/06 05:12:41;;;;;;;2.10;1.88;;;14.50;99.90;;;;;;5017006;28;20046;-58
2022/08/06 05:15:10;;;;;;;5.05;2.00;;;14.40;99.90;;;;;;5004746;28;20046;-58
2022/08/06 05:17:42;;;;;;;3.80;1.98;;;14.40;99.90;;;;;;5052166;28;20591;-58
2022/08/06 05:20:20;;;;;;;3.75;2.20;;;14.50;99.90;;;;;;5054589;28;20037;-58
2022/08/06 05:22:53;;;;;;;2.75;2.00;;;14.60;99.90;;;;;;5049171;28;20033;-58
2022/08/06 05:25:19;;;;;;;6.03;2.08;;;14.60;99.90;;;;;;5051863;28;20033;-58
2022/08/06 05:27:45;;;;;;;4.32;2.17;;;14.80;99.90;;;;;;5054618;28;20473;-58
2022/08/06 05:30:11;;;;;;;4.40;2.08;;;14.80;99.90;;;;;;5053331;28;20041;-58
2022/08/06 05:32:45;;;;;;;5.57;2.20;;;14.90;99.90;;;;;;5033911;28;20493;-58
2022/08/06 05:35:11;;;;;;;2.83;1.80;;;15.00;99.90;;;;;;5054724;28;20581;-58
2022/08/06 05:37:37;;;;;;;4.47;2.17;;;15.10;99.90;;;;;;5054753;28;20041;-58
2022/08/06 05:40:05;;;;;;;2.72;1.80;;;15.10;99.90;;;;;;5054012;28;20128;-59
2022/08/06 05:42:30;;;;;;;4.32;2.15;;;15.30;99.90;;;;;;5043751;28;20076;-59
2022/08/06 05:44:56;;;;;;;2.92;1.80;;;15.80;99.90;;;;;;5054616;28;20068;-59
2022/08/06 05:47:26;;;;;;;2.75;1.83;;;16.50;99.90;;;;;;5054258;28;20453;-59
2022/08/06 05:50:05;;;;;;;2.97;1.80;;;16.80;99.90;;;;;;5053279;28;20405;-59
2022/08/06 05:52:53;;;;;;;2.28;1.90;;;17.40;99.90;;;;;;5032179;28;20049;-59
2022/08/06 05:55:31;;;;;;;3.10;1.67;;;18.40;99.90;;;;;;5054412;28;20542;-59
2022/08/06 05:58:01;;;;;;;3.42;1.60;;;19.30;99.90;;;;;;5054404;28;20048;-58
2022/08/06 06:00:31;;;;;;;2.83;1.70;;;20.30;99.90;;;;;;5054236;28;20043;-59
2022/08/06 06:02:59;;;;;;;4.13;1.50;;;21.10;99.90;;;;;;5039807;28;20056;-59
2022/08/06 06:05:25;;;;;;;3.58;1.55;;;21.80;99.90;;;;;;5043070;28;20495;-59
2022/08/06 06:07:52;;;;;;;4.53;1.63;;;22.30;99.90;;;;;;5051842;28;20102;-59
2022/08/06 06:10:20;;;;;;;3.78;1.60;;;22.50;99.90;;;;;;5053881;28;20037;-59
2022/08/06 06:12:46;;;;;;;4.57;1.70;;;22.90;99.90;;;;;;5039062;28;20034;-59
2022/08/06 06:15:16;;;;;;;4.50;1.40;;;23.30;99.90;;;;;;5054487;28;20339;-60
2022/08/06 06:18:08;;;;;;;3.85;1.60;;;23.70;99.90;;;;;;5053290;28;20424;-60
2022/08/06 06:20:39;;;;;;;2.78;1.67;;;24.00;99.70;;;;;;5043438;28;20048;-60
2022/08/06 06:23:17;;;;;;;4.75;1.83;;;24.40;99.80;;;;;;5035109;28;20423;-59
2022/08/06 06:26:02;;;;;;;3.28;1.42;;;24.70;99.00;;;;;;5047484;28;20481;-61
2022/08/06 06:29:18;;;;;;;1.65;0.93;;;25.00;99.00;;;;;;5048676;28;20041;-59
2022/08/06 06:32:05;;;;;;;1.00;0.85;;;25.00;97.20;;;;;;5013121;28;20124;-59
2022/08/06 06:34:50;;;;;;;3.13;1.10;;;25.00;97.80;;;;;;5031630;28;20037;-59
2022/08/06 06:37:41;;;;;;;2.38;0.80;;;25.20;97.10;;;;;;5053111;28;20063;-60
2022/08/06 06:40:10;;;;;;;5.30;1.15;;;25.40;95.10;;;;;;5052775;28;20037;-60
2022/08/06 06:42:43;;;;;;;1.83;0.73;;;25.00;96.70;;;;;;5024747;28;20491;-59
2022/08/06 06:45:37;;;;;;;2.70;0.55;;;25.20;96.20;;;;;;5040860;28;20056;-60
2022/08/06 06:48:05;;;;;;;4.35;0.90;;;25.00;95.90;;;;;;5030070;28;20118;-59
2022/08/06 06:50:45;;;;;;;1.33;0.50;;;25.00;96.40;;;;;;5052406;28;20045;-60
2022/08/06 06:53:12;;;;;;;3.47;1.05;;;25.00;96.10;;;;;;5031793;28;20037;-59
2022/08/06 06:55:45;;;;;;;2.20;0.70;;;25.00;96.10;;;;;;5052609;28;20037;-60
2022/08/06 06:58:21;;;;;;;3.15;0.80;;;25.10;95.70;;;;;;5052779;28;20418;-60
2022/08/06 07:00:47;;;;;;;1.95;0.80;;;24.80;95.80;;;;;;5050442;28;20036;-59
2022/08/06 07:03:13;;;;;;;2.47;0.70;;;24.90;96.20;;;;;;5027874;28;20041;-59
2022/08/06 07:05:43;;;;;;;2.53;1.20;;;25.20;96.40;;;;;;5052510;28;20061;-60
2022/08/06 07:08:11;;;;;;;4.10;1.23;;;25.10;96.60;;;;;;5052805;28;20350;-59
2022/08/06 07:10:39;;;;;;;1.48;0.85;;;25.20;96.60;;;;;;5052060;28;20056;-59
2022/08/06 07:13:07;;;;;;;2.17;1.00;;;25.30;96.10;;;;;;5037254;28;20055;-59
2022/08/06 07:15:35;;;;;;;4.32;1.13;;;25.10;96.10;;;;;;5051753;28;20424;-61
2022/08/06 07:18:03;;;;;;;1.27;0.90;;;25.00;96.10;;;;;;5032417;28;20042;-59
2022/08/06 07:20:31;;;;;;;3.08;0.90;;;25.00;95.60;;;;;;5031536;28;20374;-59
2022/08/06 07:23:00;;;;;;;2.95;0.85;;;24.70;96.30;;;;;;5046796;28;20047;-60
2022/08/06 07:25:26;;;;;;;1.70;0.70;;;24.30;95.80;;;;;;5052038;28;20087;-58
2022/08/06 07:27:53;;;;;;;3.90;1.17;;;24.10;95.80;;;;;;5042028;28;20379;-59
2022/08/06 07:30:20;;;;;;;3.17;0.77;;;23.90;96.40;;;;;;5031763;28;20045;-58
2022/08/06 07:32:47;;;;;;;2.75;1.00;;;23.60;96.70;;;;;;5022271;28;20053;-58
2022/08/06 07:35:15;;;;;;;2.22;0.90;;;23.10;96.70;;;;;;5037523;28;20088;-58
2022/08/06 07:37:59;;;;;;;4.90;0.80;;;22.90;97.20;;;;;;5032046;28;20041;-58
2022/08/06 07:40:38;;;;;;;2.80;0.88;;;22.70;97.50;;;;;;5032860;28;20092;-58
2022/08/06 07:43:22;;;;;;;1.88;0.75;;;22.50;97.70;;;;;;5032932;28;20029;-58
2022/08/06 07:45:50;;;;;;;3.13;0.90;;;22.20;97.80;;;;;;5035582;28;20048;-58
2022/08/06 07:48:19;;;;;;;2.97;0.77;;;22.10;98.10;;;;;;5041574;28;20534;-59
2022/08/06 07:50:49;;;;;;;4.05;0.85;;;22.00;98.20;;;;;;5031002;28;20519;-58
2022/08/06 07:53:15;;;;;;;1.45;0.80;;;21.90;98.20;;;;;;5030763;28;20371;-58
2022/08/06 07:55:43;;;;;;;1.15;0.60;;;21.70;98.10;;;;;;5031779;28;20123;-59
2022/08/06 07:58:09;;;;;;;2.97;0.80;;;21.50;98.20;;;;;;5031636;28;20080;-58
2022/08/06 08:00:36;;;;;;;2.08;0.70;;;21.30;98.20;;;;;;5031318;28;20041;-58
2022/08/06 08:08:33;;;;;;;3.35;1.08;;;21.20;98.70;;;;;;5051211;28;20045;-59
2022/08/06 08:10:59;;;;;;;0.85;0.50;;;21.30;98.70;;;;;;5035371;28;20053;-59
2022/08/06 08:13:25;;;;;;;2.50;0.70;;;21.10;98.50;;;;;;5031202;28;20052;-58
2022/08/06 08:15:52;;;;;;;3.67;1.00;;;21.00;98.80;;;;;;5031269;28;20134;-58
2022/08/06 08:18:17;;;;;;;3.22;1.08;;;21.10;98.90;;;;;;5036176;28;20041;-58
2022/08/06 08:20:45;;;;;;;4.65;1.10;;;21.20;98.90;;;;;;5039922;28;20052;-59
2022/08/06 08:23:13;;;;;;;3.95;1.10;;;21.20;98.90;;;;;;5030060;28;20048;-59
2022/08/06 08:25:39;;;;;;;2.20;0.93;;;21.30;98.70;;;;;;5045411;28;20405;-59
2022/08/06 08:28:05;;;;;;;2.22;1.10;;;21.40;98.60;;;;;;5030934;28;20521;-59
2022/08/06 08:30:31;;;;;;;4.60;1.30;;;21.70;98.60;;;;;;5044756;28;20041;-59
2022/08/06 08:32:57;;;;;;;4.47;1.20;;;21.70;98.50;;;;;;5030423;28;20119;-59
2022/08/06 08:35:22;;;;;;;3.63;1.02;;;21.70;98.70;;;;;;5030658;28;20489;-59
2022/08/06 08:37:48;;;;;;;1.95;0.93;;;21.20;98.40;;;;;;5038906;28;20052;-59
2022/08/06 08:40:14;;;;;;;3.85;1.02;;;21.20;98.70;;;;;;5050826;28;20043;-59
2022/08/06 08:42:48;;;;;;;4.45;1.17;;;21.30;99.00;;;;;;5030145;28;20450;-59
2022/08/06 08:45:16;;;;;;;3.80;1.10;;;21.00;98.80;;;;;;5031173;28;20429;-59
2022/08/06 08:47:49;;;;;;;2.30;1.10;;;20.80;98.50;;;;;;5036480;28;20094;-59
2022/08/06 08:50:17;;;;;;;3.45;1.42;;;20.60;98.90;;;;;;5038273;28;20055;-58
2022/08/06 08:52:45;;;;;;;2.55;1.20;;;20.50;98.90;;;;;;5034100;28;20033;-58
2022/08/06 08:55:12;;;;;;;2.08;1.10;;;20.60;99.10;;;;;;5042052;28;20041;-58
2022/08/06 08:57:38;;;;;;;3.92;1.08;;;20.60;98.80;;;;;;5034120;28;20041;-59
2022/08/06 09:00:06;;;;;;;2.40;0.95;;;20.70;98.70;;;;;;5030843;28;20092;-58
2022/08/06 09:02:32;;;;;;;2.45;1.20;;;20.80;98.70;;;;;;5030101;28;20033;-58
2022/08/06 09:04:59;;;;;;;3.42;1.33;;;20.80;98.80;;;;;;5031137;28;20455;-58
2022/08/06 09:07:26;;;;;;;3.78;1.33;;;20.80;99.00;;;;;;5044152;28;20043;-58
2022/08/06 09:09:52;;;;;;;3.20;1.40;;;20.70;98.50;;;;;;5030503;28;20055;-58
2022/08/06 09:12:18;;;;;;;4.97;1.48;;;20.70;97.90;;;;;;5030143;28;20112;-58
2022/08/06 09:14:46;;;;;;;3.88;1.50;;;20.90;97.80;;;;;;5031486;28;20110;-58
2022/08/06 09:17:12;;;;;;;1.75;1.40;;;20.90;97.80;;;;;;5023140;28;20057;-59
2022/08/06 09:19:38;;;;;;;2.92;1.67;;;20.90;97.60;;;;;;5030604;28;20042;-58
2022/08/06 09:22:04;;;;;;;2.58;1.30;;;21.10;98.00;;;;;;5030060;28;20116;-59
2022/08/06 09:24:30;;;;;;;2.30;1.33;;;21.30;98.00;;;;;;5042710;28;20125;-58
2022/08/06 09:27:06;;;;;;;3.58;1.40;;;21.40;97.40;;;;;;5022886;28;20116;-58
2022/08/06 09:29:33;;;;;;;5.47;1.80;;;21.40;97.10;;;;;;5054264;28;20048;-59
2022/08/06 09:31:59;;;;;;;3.00;1.40;;;21.30;96.70;;;;;;5035699;28;20120;-59
2022/08/06 09:34:33;;;;;;;3.63;1.45;;;21.30;96.60;;;;;;5030430;28;20041;-59
2022/08/06 09:36:59;;;;;;;;;;;21.50;96.60;;;;;;5053837;28;20037;-59
2022/08/06 09:39:40;;;;;;;2.45;1.58;;;21.60;96.60;;;;;;5033769;28;19932;-59
2022/08/06 09:42:07;;;;;;;3.92;1.70;;;21.80;96.40;;;;;;5026331;28;20112;-58
2022/08/06 09:44:33;;;;;;;3.05;1.65;;;21.90;96.70;;;;;;5034360;28;20154;-60
2022/08/06 09:47:00;;;;;;;3.65;1.95;;;21.80;96.80;;;;;;5047503;28;20037;-59
2022/08/06 09:49:26;;;;;;;5.50;1.85;;;21.70;97.10;;;;;;5048186;28;20054;-59
2022/08/06 09:52:11;;;;;;;4.45;1.67;;;21.40;97.30;;;;;;5037077;28;20057;-59
2022/08/06 09:54:37;;;;;;;2.75;1.50;;;21.20;98.10;;;;;;5026631;28;20124;-59
2022/08/06 09:57:03;;;;;;;4.13;1.90;;;21.10;98.20;;;;;;5041657;28;20042;-59
2022/08/06 09:59:40;;;;;;;7.10;1.85;;;21.00;98.60;;;;;;5028782;28;20073;-59
2022/08/06 10:02:20;;;;;;;3.08;1.58;;;21.00;98.50;;;;;;5025101;28;20049;-58
2022/08/06 10:04:48;;;;;;;2.97;1.50;;;21.00;98.40;;;;;;5039563;28;20037;-59
2022/08/06 10:07:15;;;;;;;6.00;2.13;;;21.00;97.80;;;;;;5041695;28;20120;-59
2022/08/06 10:09:52;;;;;;;4.13;1.50;;;20.80;97.90;;;;;;5033480;28;20047;-59
2022/08/06 10:12:24;;;;;;;3.42;1.70;;;20.70;97.60;;;;;;5033123;28;20056;-59
2022/08/06 10:14:50;;;;;;;3.40;1.50;;;20.60;97.80;;;;;;5033215;28;20053;-58
2022/08/06 10:17:19;;;;;;;3.85;1.70;;;20.50;97.60;;;;;;5033363;28;20057;-59
2022/08/06 10:20:07;;;;;;;2.47;1.70;;;20.50;97.50;;;;;;5036205;28;20052;-59
2022/08/06 10:22:34;;;;;;;4.28;1.70;;;20.40;97.60;;;;;;5011590;28;20052;-59
2022/08/06 10:25:03;;;;;;;3.28;1.50;;;20.60;97.60;;;;;;5045403;28;20091;-60
2022/08/06 10:27:33;;;;;;;3.33;1.80;;;20.80;97.00;;;;;;5015724;28;20517;-59
2022/08/06 10:30:03;;;;;;;4.82;2.00;;;21.00;96.30;;;;;;5046510;28;20041;-59
2022/08/06 10:32:37;;;;;;;4.82;1.88;;;21.10;96.20;;;;;;5046479;28;20076;-59
2022/08/06 10:35:04;;;;;;;3.13;1.58;;;21.30;95.90;;;;;;5040103;28;20104;-59
2022/08/06 10:37:41;;;;;;;4.55;1.90;;;21.60;95.50;;;;;;5052085;28;20068;-60
2022/08/06 10:40:12;;;;;;;4.10;1.83;;;21.80;95.20;;;;;;5022127;28;20056;-60
2022/08/06 10:42:38;;;;;;;3.88;1.70;;;22.00;94.90;;;;;;5032126;28;20060;-61
2022/08/06 10:45:05;;;;;;;2.67;1.60;;;22.20;94.80;;;;;;5033155;28;20080;-59
2022/08/06 10:47:33;;;;;;;2.13;1.50;;;22.40;94.90;;;;;;5032996;28;20036;-60
2022/08/06 10:50:00;;;;;;;2.00;1.48;;;22.50;94.60;;;;;;5032426;28;20454;-60
2022/08/06 10:52:26;;;;;;;6.07;2.05;;;22.70;95.00;;;;;;5013988;28;20048;-60
2022/08/06 10:54:53;;;;;;;2.25;1.50;;;22.90;94.80;;;;;;5032264;28;20045;-58
2022/08/06 10:57:19;;;;;;;2.33;1.80;;;22.90;95.00;;;;;;5032685;28;20041;-58
2022/08/06 10:59:46;;;;;;;2.53;1.75;;;22.70;95.00;;;;;;5032144;28;20478;-58
2022/08/06 11:02:50;;;;;;;2.25;1.60;;;22.30;95.20;;;;;;5032091;28;20033;-59
2022/08/06 11:05:18;;;;;;;2.70;1.40;;;22.10;95.40;;;;;;5022695;28;20052;-59
2022/08/06 11:08:02;;;;;;;2.50;1.50;;;21.80;95.60;;;;;;5015477;28;20403;-59
2022/08/06 11:11:11;;;;;;;2.03;1.35;;;21.60;95.60;;;;;;5032239;28;20048;-59
2022/08/06 11:13:59;;;;;;;2.10;1.50;;;21.40;96.30;;;;;;5012783;28;20042;-60
2022/08/06 11:16:28;;;;;;;2.08;1.48;;;21.20;96.60;;;;;;5029811;28;20049;-59
2022/08/06 11:19:04;;;;;;;3.08;1.60;;;21.20;96.90;;;;;;5042025;28;20077;-59
2022/08/06 11:21:48;;;;;;;2.00;1.52;;;21.20;96.90;;;;;;5033854;28;20045;-59
2022/08/06 11:24:15;;;;;;;2.78;1.33;;;21.20;97.20;;;;;;5044373;28;20354;-59
2022/08/06 11:26:44;;;;;;;4.80;1.67;;;21.30;97.10;;;;;;5038201;28;20037;-59
2022/08/06 11:29:15;;;;;;;6.53;1.75;;;21.40;96.80;;;;;;5032409;28;20041;-60
2022/08/06 11:31:47;;;;;;;3.40;1.55;;;21.40;96.90;;;;;;5031304;28;20378;-59
2022/08/06 11:34:15;;;;;;;5.20;1.80;;;21.50;97.00;;;;;;5019098;28;20033;-59
2022/08/06 11:36:51;;;;;;;2.35;1.60;;;21.50;97.20;;;;;;5031772;28;20493;-60
2022/08/06 11:39:20;;;;;;;3.88;1.60;;;21.50;96.40;;;;;;5031489;28;20099;-60
2022/08/06 11:42:01;;;;;;;2.15;1.42;;;21.70;96.40;;;;;;5031360;28;20030;-59
2022/08/06 11:44:32;;;;;;;4.28;1.40;;;21.90;96.30;;;;;;5018797;28;20034;-59
2022/08/06 11:47:20;;;;;;;2.10;1.40;;;22.30;96.00;;;;;;5031632;28;20107;-59
2022/08/06 11:49:50;;;;;;;2.53;1.70;;;22.50;95.40;;;;;;5031434;28;20513;-60
2022/08/06 11:52:31;;;;;;;2.42;1.48;;;22.60;95.50;;;;;;5031449;28;20041;-59
2022/08/06 11:55:04;;;;;;;2.60;1.23;;;22.60;95.20;;;;;;5014530;28;20060;-59
2022/08/06 11:57:30;;;;;;;4.38;1.50;;;22.60;95.00;;;;;;5014501;28;20120;-59
2022/08/06 11:59:56;;;;;;;4.13;1.42;;;22.50;95.00;;;;;;5031355;28;20052;-59
2022/08/06 12:02:45;;;;;;;1.92;1.27;;;22.60;95.00;;;;;;5031045;28;20037;-60
2022/08/06 12:05:14;;;;;;;2.55;1.40;;;22.80;94.80;;;;;;5032116;28;20083;-59
2022/08/06 12:07:44;;;;;;;2.67;1.27;;;23.00;94.50;;;;;;5047273;28;20033;-60
2022/08/06 12:10:13;;;;;;;3.90;1.48;;;23.30;94.00;;;;;;5051467;28;20101;-60
2022/08/06 12:12:45;;;;;;;3.42;1.60;;;23.30;93.70;;;;;;5036001;28;20054;-60
2022/08/06 12:15:19;;;;;;;2.42;1.45;;;23.30;92.90;;;;;;5039155;28;20044;-59
2022/08/06 12:17:53;;;;;;;;;;;23.30;93.50;;;;;;5037049;28;20463;-59
2022/08/06 12:20:43;;;;;;;2.95;1.40;;;23.10;94.30;;;;;;5031260;28;20384;-59
2022/08/06 12:23:11;;;;;;;2.90;1.40;;;23.10;94.50;;;;;;5022503;28;20033;-60
2022/08/06 12:25:38;;;;;;;2.08;1.40;;;23.30;94.40;;;;;;5046309;28;20120;-59
2022/08/06 12:28:06;;;;;;;3.45;1.40;;;23.40;94.30;;;;;;5031849;28;20044;-59
2022/08/06 12:30:41;;;;;;;2.95;1.58;;;23.50;94.10;;;;;;5031205;28;20048;-59
2022/08/06 12:33:08;;;;;;;4.13;1.40;;;23.50;93.90;;;;;;5027004;28;20364;-59
2022/08/06 12:35:35;;;;;;;3.85;1.70;;;23.50;93.90;;;;;;5031536;28;20044;-59
2022/08/06 12:38:01;;;;;;;3.53;1.63;;;23.60;94.00;;;;;;5031332;28;20045;-60
2022/08/06 12:40:27;;;;;;;2.47;1.50;;;23.60;93.80;;;;;;5031106;28;20480;-59
2022/08/06 12:43:03;;;;;;;2.58;1.50;;;23.80;93.70;;;;;;5013021;28;20042;-59
2022/08/06 12:45:31;;;;;;;2.78;1.67;;;23.50;94.10;;;;;;5045371;28;20036;-59
2022/08/06 12:48:02;;;;;;;3.03;1.70;;;23.10;94.60;;;;;;5031094;28;20532;-59
2022/08/06 12:50:29;;;;;;;3.35;1.60;;;22.90;94.80;;;;;;5027374;28;20044;-59
2022/08/06 12:53:06;;;;;;;5.57;1.75;;;22.60;94.80;;;;;;5029525;28;20455;-59
2022/08/06 12:55:42;;;;;;;2.90;1.40;;;22.60;94.90;;;;;;5025189;28;20056;-60
2022/08/06 12:58:09;;;;;;;2.72;1.40;;;22.50;94.70;;;;;;5018605;28;20034;-60
2022/08/06 13:00:35;;;;;;;3.22;1.48;;;22.60;94.80;;;;;;5034184;28;20049;-59
2022/08/06 13:03:03;;;;;;;3.03;1.42;;;22.80;94.40;;;;;;5034280;28;20154;-59
2022/08/06 13:05:30;;;;;;;3.45;1.40;;;22.90;94.10;;;;;;5035372;28;20069;-59
2022/08/06 13:07:57;;;;;;;3.22;1.50;;;22.90;93.80;;;;;;5035232;28;20105;-59